createdAt,value
2022-11-07T00:02:05.974Z,14.75
2022-11-07T00:04:39.895Z,14.73
2022-11-07T00:07:26.877Z,15.63
2022-11-07T00:09:59.894Z,15.75
2022-11-07T00:12:32.990Z,16.20
2022-11-07T00:14:59.608Z,15.57
2022-11-07T00:17:32.907Z,15.15
2022-11-07T00:19:59.525Z,14.90
2022-11-07T00:22:32.979Z,15.75
2022-11-07T00:24:59.576Z,15.75
2022-11-07T00:27:32.987Z,15.27
2022-11-07T00:30:05.896Z,15.55
2022-11-07T00:32:32.512Z,16.27
2022-11-07T00:35:00.490Z,15.38
2022-11-07T00:37:33.951Z,16.05
2022-11-07T00:40:06.962Z,15.27
2022-11-07T00:42:33.544Z,14.98
2022-11-07T00:45:00.129Z,15.88
2022-11-07T00:47:32.902Z,14.98
2022-11-07T00:49:59.472Z,16.15
2022-11-07T00:52:32.909Z,15.15
2022-11-07T00:55:05.902Z,14.80
2022-11-07T00:57:32.477Z,15.57
2022-11-07T01:00:05.919Z,13.90
2022-11-07T01:02:32.628Z,14.45
2022-11-07T01:05:17.915Z,15.30
2022-11-07T01:07:51.292Z,15.10
2022-11-07T01:10:24.907Z,14.32
2022-11-07T01:12:57.963Z,14.45
2022-11-07T01:15:31.889Z,14.55
2022-11-07T01:18:05.013Z,15.35
2022-11-07T01:20:37.952Z,14.32
2022-11-07T01:23:10.992Z,14.50
2022-11-07T01:25:39.087Z,14.80
2022-11-07T01:28:06.987Z,14.27
2022-11-07T01:30:39.966Z,14.85
2022-11-07T01:33:06.840Z,14.05
2022-11-07T01:35:34.859Z,14.75
2022-11-07T01:38:07.960Z,13.73
2022-11-07T01:40:54.618Z,14.10
2022-11-07T01:43:27.979Z,14.25
2022-11-07T01:45:54.562Z,14.20
2022-11-07T01:48:27.895Z,13.60
2022-11-07T01:50:54.491Z,13.48
2022-11-07T01:53:21.131Z,13.15
2022-11-07T01:55:53.891Z,13.70
2022-11-07T01:58:20.570Z,13.30
2022-11-07T02:00:47.227Z,13.57
2022-11-07T02:03:23.911Z,12.80
2022-11-07T02:05:57.971Z,13.35
2022-11-07T02:08:40.960Z,11.85
2022-11-07T02:11:07.994Z,11.95
2022-11-07T02:13:40.908Z,13.20
2022-11-07T02:16:07.939Z,13.23
2022-11-07T02:18:36.804Z,12.82
2022-11-07T02:21:17.893Z,13.82
2022-11-07T02:24:00.510Z,13.40
2022-11-07T02:26:33.931Z,12.95
2022-11-07T02:29:03.201Z,12.25
2022-11-07T02:31:29.797Z,12.47
2022-11-07T02:34:02.948Z,12.00
2022-11-07T02:36:29.584Z,13.35
2022-11-07T02:38:58.775Z,13.05
2022-11-07T02:41:34.994Z,12.87
2022-11-07T02:44:07.647Z,12.30
2022-11-07T02:46:34.527Z,11.82
2022-11-07T02:49:08.933Z,12.55
2022-11-07T02:51:35.520Z,11.90
2022-11-07T02:54:08.963Z,11.45
2022-11-07T02:56:41.963Z,11.20
2022-11-07T02:59:08.541Z,12.55
2022-11-07T03:01:35.228Z,12.23
2022-11-07T03:04:08.899Z,10.65
2022-11-07T03:06:35.571Z,10.85
2022-11-07T03:09:15.942Z,10.63
2022-11-07T03:11:42.526Z,11.90
2022-11-07T03:14:09.172Z,12.27
2022-11-07T03:16:41.901Z,12.25
2022-11-07T03:19:08.508Z,11.13
2022-11-07T03:21:35.118Z,11.43
2022-11-07T03:24:07.945Z,11.32
2022-11-07T03:26:40.955Z,11.40
2022-11-07T03:29:07.614Z,11.63
2022-11-07T03:31:40.929Z,12.02
2022-11-07T03:34:07.545Z,11.68
2022-11-07T03:36:40.909Z,11.50
2022-11-07T03:39:07.594Z,10.80
2022-11-07T03:41:40.958Z,11.07
2022-11-07T03:44:13.965Z,10.50
2022-11-07T03:46:40.552Z,11.15
2022-11-07T03:49:13.922Z,11.45
2022-11-07T03:51:40.505Z,11.23
2022-11-07T03:54:07.876Z,10.43
2022-11-07T03:56:41.094Z,11.38
2022-11-07T03:59:07.693Z,11.05
2022-11-07T04:01:34.519Z,11.63
2022-11-07T04:04:07.886Z,10.45
2022-11-07T04:06:34.486Z,10.68
2022-11-07T04:09:13.963Z,10.95
2022-11-07T04:11:59.491Z,9.48
2022-11-07T04:14:50.976Z,11.07
2022-11-07T04:17:20.683Z,11.00
2022-11-07T04:19:55.966Z,10.73
2022-11-07T04:22:23.646Z,10.48
2022-11-07T04:24:50.643Z,11.60
2022-11-07T04:27:49.943Z,11.45
2022-11-07T04:30:24.843Z,11.20
2022-11-07T04:33:02.910Z,11.43
2022-11-07T04:35:37.902Z,10.85
2022-11-07T04:38:10.891Z,10.73
2022-11-07T04:40:37.468Z,9.60
2022-11-07T04:43:16.309Z,12.15
2022-11-07T04:45:49.941Z,9.27
2022-11-07T04:48:22.953Z,10.05
2022-11-07T04:50:50.173Z,10.13
2022-11-07T04:53:24.912Z,9.80
2022-11-07T04:55:51.502Z,10.35
2022-11-07T04:58:18.102Z,9.35
2022-11-07T05:00:50.912Z,9.82
2022-11-07T05:03:17.919Z,9.30
2022-11-07T05:05:44.824Z,9.13
2022-11-07T05:08:17.904Z,9.50
2022-11-07T05:10:50.921Z,9.15
2022-11-07T05:13:24.969Z,9.93
2022-11-07T05:15:51.882Z,8.18
2022-11-07T05:18:28.916Z,8.85
2022-11-07T05:20:56.260Z,8.32
2022-11-07T05:23:28.867Z,8.50
2022-11-07T05:26:01.903Z,8.38
2022-11-07T05:28:39.887Z,8.45
2022-11-07T05:31:08.145Z,7.80
2022-11-07T05:33:41.927Z,7.40
2022-11-07T05:36:20.949Z,6.82
2022-11-07T05:38:57.074Z,6.90
2022-11-07T05:41:23.693Z,6.57
2022-11-07T05:43:50.328Z,7.70
2022-11-07T05:46:23.929Z,7.43
2022-11-07T05:49:00.963Z,7.30
2022-11-07T05:51:34.920Z,6.80
2022-11-07T05:54:07.934Z,6.72
2022-11-07T05:56:34.529Z,7.20
2022-11-07T05:59:07.905Z,6.22
2022-11-07T06:01:41.068Z,6.80
2022-11-07T06:04:14.981Z,6.55
2022-11-07T06:06:41.590Z,6.53
2022-11-07T06:09:20.880Z,7.00
2022-11-07T06:11:53.895Z,6.83
2022-11-07T06:14:26.890Z,7.10
2022-11-07T06:16:53.508Z,6.38
2022-11-07T06:19:26.899Z,6.40
2022-11-07T06:21:53.525Z,6.40
2022-11-07T06:24:26.911Z,6.20
2022-11-07T06:26:53.661Z,6.30
2022-11-07T06:29:20.252Z,6.50
2022-11-07T06:31:52.910Z,5.78
2022-11-07T06:34:19.548Z,5.47
2022-11-07T06:36:51.902Z,6.20
2022-11-07T06:39:31.951Z,5.47
2022-11-07T06:41:58.549Z,5.43
2022-11-07T06:44:31.947Z,5.43
2022-11-07T06:46:58.574Z,5.55
2022-11-07T06:49:31.934Z,4.90
2022-11-07T06:52:04.940Z,4.93
2022-11-07T06:54:37.948Z,5.20
2022-11-07T06:57:11.009Z,5.30
2022-11-07T06:59:37.618Z,5.32
2022-11-07T07:02:04.268Z,5.40
2022-11-07T07:04:37.957Z,5.40
2022-11-07T07:07:05.039Z,4.97
2022-11-07T07:09:45.917Z,4.97
2022-11-07T07:12:18.916Z,5.63
2022-11-07T07:14:51.919Z,5.05
2022-11-07T07:17:18.530Z,4.63
2022-11-07T07:19:45.145Z,5.20
2022-11-07T07:22:21.924Z,4.30
2022-11-07T07:24:51.389Z,5.03
2022-11-07T07:27:26.910Z,4.93
2022-11-07T07:29:53.596Z,4.40
2022-11-07T07:32:27.912Z,3.97
2022-11-07T07:34:54.601Z,3.47
2022-11-07T07:37:27.939Z,3.90
2022-11-07T07:40:00.941Z,4.07
2022-11-07T07:42:27.596Z,3.97
2022-11-07T07:44:54.513Z,3.90
2022-11-07T07:47:27.932Z,4.18
2022-11-07T07:49:54.554Z,4.18
2022-11-07T07:52:21.142Z,3.90
2022-11-07T07:54:54.169Z,3.83
2022-11-07T08:02:50.954Z,4.03
2022-11-07T08:05:23.909Z,3.55
2022-11-07T08:08:10.897Z,3.72
2022-11-07T08:10:44.017Z,3.88
2022-11-07T08:13:10.675Z,3.70
2022-11-07T08:15:37.315Z,3.72
2022-11-07T08:18:10.936Z,3.55
2022-11-07T08:20:43.975Z,3.50
2022-11-07T08:23:18.224Z,3.38
2022-11-07T08:25:52.901Z,3.60
2022-11-07T08:28:27.928Z,3.60
2022-11-07T08:31:14.885Z,3.33
2022-11-07T08:33:47.973Z,3.70
2022-11-07T08:36:14.652Z,3.60
2022-11-07T08:38:41.311Z,3.50
2022-11-07T08:41:19.598Z,3.30
2022-11-07T08:43:49.318Z,3.53
2022-11-07T08:46:22.971Z,3.33
2022-11-07T08:48:49.605Z,3.10
2022-11-07T08:51:22.959Z,3.42
2022-11-07T08:53:49.615Z,3.00
2022-11-07T08:56:16.239Z,3.17
2022-11-07T08:58:48.880Z,3.58
2022-11-07T09:01:22.057Z,2.90
2022-11-07T09:03:58.266Z,3.22
2022-11-07T09:06:25.351Z,2.63
2022-11-07T09:08:58.912Z,3.00
2022-11-07T09:11:32.931Z,2.58
2022-11-07T09:13:59.574Z,2.42
2022-11-07T09:16:32.917Z,2.60
2022-11-07T09:18:59.576Z,2.67
2022-11-07T09:21:26.316Z,2.70
2022-11-07T09:23:59.926Z,2.72
2022-11-07T09:26:26.630Z,2.90
2022-11-07T09:28:58.618Z,2.50
2022-11-07T09:31:33.985Z,2.67
2022-11-07T09:34:06.923Z,2.80
2022-11-07T09:36:33.897Z,2.38
2022-11-07T09:39:01.092Z,2.53
2022-11-07T09:41:58.945Z,2.55
2022-11-07T09:44:58.900Z,2.08
2022-11-07T09:47:37.562Z,1.98
2022-11-07T09:50:17.920Z,2.42
2022-11-07T09:53:10.593Z,2.97
2022-11-07T09:55:47.901Z,2.50
2022-11-07T09:58:40.744Z,2.25
2022-11-07T10:01:19.966Z,2.05
2022-11-07T10:04:17.982Z,2.53
2022-11-07T10:06:45.925Z,2.22
2022-11-07T10:09:55.277Z,2.20
2022-11-07T10:12:47.911Z,2.58
2022-11-07T10:15:41.585Z,2.47
2022-11-07T10:18:27.915Z,2.33
2022-11-07T10:21:35.769Z,2.60
2022-11-07T10:23:57.970Z,2.63
2022-11-07T10:26:27.235Z,2.33
2022-11-07T10:29:20.994Z,2.40
2022-11-07T10:31:58.126Z,2.55
2022-11-07T10:34:54.331Z,2.15
2022-11-07T10:37:21.371Z,2.30
2022-11-07T10:39:54.928Z,2.25
2022-11-07T10:42:26.002Z,2.78
2022-11-07T10:45:01.945Z,2.08
2022-11-07T10:47:35.017Z,2.38
2022-11-07T10:50:13.946Z,2.30
2022-11-07T10:52:47.963Z,2.20
2022-11-07T10:55:16.838Z,1.90
2022-11-07T10:57:52.927Z,2.15
2022-11-07T11:00:25.753Z,2.75
2022-11-07T11:02:59.943Z,2.20
2022-11-07T11:05:46.860Z,2.00
2022-11-07T11:08:38.927Z,2.33
2022-11-07T11:11:16.582Z,2.00
2022-11-07T11:13:49.977Z,1.85
2022-11-07T11:16:28.560Z,2.25
2022-11-07T11:19:03.936Z,2.00
2022-11-07T11:21:43.377Z,2.13
2022-11-07T11:24:42.917Z,1.90
2022-11-07T11:27:15.348Z,1.90
2022-11-07T11:29:51.968Z,1.70
2022-11-07T11:32:27.427Z,2.75
2022-11-07T11:35:11.900Z,2.42
2022-11-07T11:37:43.354Z,1.80
2022-11-07T11:40:28.930Z,1.85
2022-11-07T11:43:19.855Z,2.15
2022-11-07T11:46:10.905Z,1.90
2022-11-07T11:48:58.480Z,2.20
2022-11-07T11:51:45.909Z,2.00
2022-11-07T11:54:15.561Z,2.00
2022-11-07T11:56:59.941Z,1.60
2022-11-07T11:59:51.888Z,2.00
2022-11-07T12:03:16.401Z,1.75
2022-11-07T12:05:51.838Z,1.83
2022-11-07T12:08:41.940Z,1.40
2022-11-07T12:11:46.914Z,1.83
2022-11-07T12:14:19.948Z,2.15
2022-11-07T12:17:06.049Z,2.28
2022-11-07T12:19:48.985Z,2.17
2022-11-07T12:22:38.392Z,1.67
2022-11-07T12:25:22.953Z,2.00
2022-11-07T12:28:26.894Z,1.73
2022-11-07T12:31:09.914Z,2.10
2022-11-07T12:33:42.377Z,1.52
2022-11-07T12:36:41.042Z,1.58
2022-11-07T12:39:43.908Z,1.52
2022-11-07T12:42:30.401Z,1.90
2022-11-07T12:45:16.975Z,2.13
2022-11-07T12:48:01.080Z,1.70
2022-11-07T12:50:52.945Z,1.73
2022-11-07T12:53:42.753Z,2.00
2022-11-07T12:56:23.887Z,2.10
2022-11-07T12:58:52.204Z,1.80
2022-11-07T13:01:32.978Z,1.83
2022-11-07T13:04:15.908Z,2.05
2022-11-07T13:06:58.810Z,1.90
2022-11-07T13:09:47.985Z,2.35
2022-11-07T13:12:40.981Z,2.30
2022-11-07T13:15:12.752Z,2.20
2022-11-07T13:17:49.025Z,1.65
2022-11-07T13:20:21.781Z,1.67
2022-11-07T13:22:56.965Z,2.70
2022-11-07T13:25:27.138Z,3.25
2022-11-07T13:30:43.056Z,2.03
2022-11-07T13:33:32.916Z,2.10
2022-11-07T13:36:26.301Z,2.00
2022-11-07T13:39:03.890Z,1.80
2022-11-07T13:41:37.980Z,2.60
2022-11-07T13:44:20.002Z,2.30
2022-11-07T13:46:57.902Z,2.50
2022-11-07T13:49:44.252Z,2.30
2022-11-07T13:52:40.258Z,1.70
2022-11-07T13:55:22.904Z,1.90
2022-11-07T13:57:55.567Z,1.70
2022-11-07T14:00:29.107Z,2.47
2022-11-07T14:02:57.858Z,2.13
2022-11-07T14:05:33.897Z,2.13
2022-11-07T14:08:07.080Z,1.83
2022-11-07T14:11:01.894Z,1.98
2022-11-07T14:13:41.163Z,1.90
2022-11-07T14:16:29.904Z,2.00
2022-11-07T14:19:00.423Z,2.00
2022-11-07T14:21:42.941Z,2.30
2022-11-07T14:24:34.962Z,2.00
2022-11-07T14:27:08.664Z,2.00
2022-11-07T14:29:41.979Z,2.10
2022-11-07T14:32:18.300Z,2.05
2022-11-07T14:34:54.009Z,1.98
2022-11-07T14:37:31.910Z,2.10
2022-11-07T14:40:05.010Z,2.13
2022-11-07T14:42:37.912Z,2.20
2022-11-07T14:45:11.998Z,1.70
2022-11-07T14:47:38.909Z,1.90
2022-11-07T14:50:12.895Z,2.03
2022-11-07T14:53:08.570Z,2.38
2022-11-07T14:55:48.974Z,2.13
2022-11-07T14:58:18.497Z,2.15
2022-11-07T15:01:03.950Z,1.90
2022-11-07T15:03:34.083Z,2.17
2022-11-07T15:06:01.435Z,2.30
2022-11-07T15:09:01.926Z,1.95
2022-11-07T15:11:54.912Z,2.15
2022-11-07T15:14:34.299Z,2.42
2022-11-07T15:17:10.921Z,2.37
2022-11-07T15:19:38.339Z,1.92
2022-11-07T15:22:12.899Z,2.08
2022-11-07T15:24:44.953Z,1.83
2022-11-07T15:27:23.923Z,1.88
2022-11-07T15:29:53.980Z,2.30
2022-11-07T15:32:23.314Z,2.53
2022-11-07T15:35:30.072Z,2.23
2022-11-07T15:37:56.616Z,1.73
2022-11-07T15:40:30.904Z,1.90
2022-11-07T15:43:03.967Z,3.05
2022-11-07T15:45:36.899Z,2.28
2022-11-07T15:48:06.215Z,3.67
2022-11-07T15:50:39.915Z,3.00
2022-11-07T15:53:06.517Z,3.63
2022-11-07T15:55:39.938Z,3.53
2022-11-07T15:58:06.526Z,5.13
2022-11-07T16:00:39.899Z,4.05
2022-11-07T16:03:06.536Z,2.90
2022-11-07T16:05:39.972Z,2.22
2022-11-07T16:08:09.111Z,3.10
2022-11-07T16:11:08.943Z,2.20
2022-11-07T16:13:41.905Z,2.13
2022-11-07T16:16:19.344Z,2.00
2022-11-07T16:18:55.960Z,1.95
2022-11-07T16:21:28.898Z,2.25
2022-11-07T16:23:55.523Z,1.70
2022-11-07T16:26:35.923Z,1.70
2022-11-07T16:29:11.137Z,1.98
2022-11-07T16:31:43.902Z,1.83
2022-11-07T16:34:11.261Z,1.65
2022-11-07T16:36:45.935Z,2.50
2022-11-07T16:39:27.887Z,1.83
2022-11-07T16:41:54.465Z,2.58
2022-11-07T16:44:26.317Z,2.35
2022-11-07T16:47:01.928Z,2.15
2022-11-07T16:49:31.536Z,2.08
2022-11-07T16:52:04.907Z,2.17
2022-11-07T16:54:31.515Z,1.88
2022-11-07T16:57:04.988Z,2.22
2022-11-07T16:59:31.560Z,1.70
2022-11-07T17:02:08.997Z,2.03
2022-11-07T17:07:11.912Z,2.50
2022-11-07T17:09:45.036Z,2.17
2022-11-07T17:12:28.953Z,2.22
2022-11-07T17:14:55.676Z,2.13
2022-11-07T17:17:28.945Z,2.40
2022-11-07T17:19:55.556Z,2.10
2022-11-07T17:22:28.908Z,2.47
2022-11-07T17:24:55.671Z,3.35
2022-11-07T17:27:30.942Z,2.03
2022-11-07T17:29:57.545Z,2.60
2022-11-07T17:32:24.163Z,2.10
2022-11-07T17:35:25.646Z,2.40
2022-11-07T17:37:43.500Z,2.10
2022-11-07T17:40:23.892Z,2.42
2022-11-07T17:42:50.491Z,2.33
2022-11-07T17:45:23.919Z,2.47
2022-11-07T17:47:51.123Z,2.45
2022-11-07T17:50:20.353Z,2.38
2022-11-07T17:52:53.906Z,2.10
2022-11-07T17:55:21.562Z,3.63
2022-11-07T17:57:54.901Z,1.88
2022-11-07T18:00:24.847Z,2.20
2022-11-07T18:02:58.997Z,2.15
2022-11-07T18:05:33.413Z,2.58
2022-11-07T18:08:07.294Z,2.00
2022-11-07T18:10:58.883Z,2.15
2022-11-07T18:13:32.933Z,2.20
2022-11-07T18:16:05.946Z,1.92
2022-11-07T18:18:32.570Z,2.25
2022-11-07T18:21:06.915Z,2.83
2022-11-07T18:23:33.500Z,2.20
2022-11-07T18:26:14.976Z,2.15
2022-11-07T18:28:48.943Z,3.15
2022-11-07T18:31:18.156Z,2.17
2022-11-07T18:33:51.973Z,1.95
2022-11-07T18:36:21.130Z,2.20
2022-11-07T18:38:53.913Z,2.38
2022-11-07T18:41:24.222Z,2.15
2022-11-07T18:46:25.959Z,2.30
2022-11-07T18:48:58.953Z,2.17
2022-11-07T18:51:25.615Z,2.03
2022-11-07T18:53:53.412Z,2.30
2022-11-07T18:56:27.927Z,2.47
2022-11-07T18:58:55.479Z,2.08
2022-11-07T19:01:32.991Z,2.03
2022-11-07T19:04:03.447Z,1.98
2022-11-07T19:06:30.260Z,1.90
2022-11-07T19:09:03.963Z,2.10
2022-11-07T19:11:37.684Z,2.00
2022-11-07T19:14:11.131Z,2.40
2022-11-07T19:16:37.743Z,2.13
2022-11-07T19:19:10.929Z,2.78
2022-11-07T19:21:41.389Z,2.15
2022-11-07T19:24:16.924Z,2.10
2022-11-07T19:26:43.695Z,2.30
2022-11-07T19:29:17.031Z,2.25
2022-11-07T19:31:43.914Z,2.38
2022-11-07T19:34:16.931Z,2.10
2022-11-07T19:36:43.593Z,2.17
2022-11-07T19:39:10.271Z,2.10
2022-11-07T19:41:43.073Z,3.03
2022-11-07T19:44:09.839Z,2.70
2022-11-07T19:46:42.950Z,2.70
2022-11-07T19:49:09.657Z,2.75
2022-11-07T19:51:36.546Z,2.47
2022-11-07T19:54:11.052Z,2.42
2022-11-07T19:56:38.781Z,2.55
2022-11-07T19:59:11.943Z,2.40
2022-11-07T20:01:39.508Z,2.20
2022-11-07T20:04:14.921Z,2.13
2022-11-07T20:06:41.529Z,2.22
2022-11-07T20:09:15.907Z,2.63
2022-11-07T20:11:55.953Z,2.47
2022-11-07T20:14:22.582Z,2.40
2022-11-07T20:16:49.472Z,2.15
2022-11-07T20:19:22.934Z,2.13
2022-11-07T20:21:55.946Z,2.53
2022-11-07T20:24:22.611Z,2.53
2022-11-07T20:26:56.004Z,2.35
2022-11-07T20:29:29.939Z,2.78
2022-11-07T20:31:56.674Z,2.22
2022-11-07T20:34:23.307Z,2.35
2022-11-07T20:36:59.944Z,2.10
2022-11-07T20:39:26.588Z,2.53
2022-11-07T20:41:53.940Z,2.25
2022-11-07T20:44:28.927Z,2.55
2022-11-07T20:46:57.444Z,2.72
2022-11-07T20:49:30.973Z,1.98
2022-11-07T20:51:58.241Z,2.55
2022-11-07T20:54:30.922Z,2.72
2022-11-07T20:56:57.524Z,2.60
2022-11-07T20:59:24.112Z,2.33
2022-11-07T21:02:03.664Z,2.90
2022-11-07T21:04:44.601Z,2.50
2022-11-07T21:07:28.923Z,2.95
2022-11-07T21:10:08.918Z,3.20
2022-11-07T21:12:41.984Z,3.70
2022-11-07T21:15:09.711Z,2.80
2022-11-07T21:17:36.337Z,2.58
2022-11-07T21:20:11.025Z,2.65
2022-11-07T21:22:43.984Z,2.42
2022-11-07T21:25:16.916Z,2.75
2022-11-07T21:27:49.913Z,3.40
2022-11-07T21:30:16.874Z,5.38
2022-11-07T21:32:49.925Z,2.95
2022-11-07T21:35:16.553Z,10.10
2022-11-07T21:37:49.924Z,2.67
2022-11-07T21:40:16.527Z,3.50
2022-11-07T21:42:49.969Z,2.13
2022-11-07T21:45:16.577Z,6.72
2022-11-07T21:47:49.939Z,3.20
2022-11-07T21:50:38.371Z,3.80
2022-11-07T21:53:10.928Z,4.63
2022-11-07T21:55:43.915Z,5.60
2022-11-07T21:58:10.567Z,2.42
2022-11-07T22:00:45.924Z,2.63
2022-11-07T22:03:37.295Z,4.15
2022-11-07T22:06:12.909Z,4.03
2022-11-07T22:08:40.444Z,3.58
2022-11-07T22:11:21.968Z,1.80
2022-11-07T22:13:48.593Z,2.00
2022-11-07T22:16:24.013Z,1.83
2022-11-07T22:18:51.080Z,2.25
2022-11-07T22:21:26.937Z,2.72
2022-11-07T22:23:53.537Z,2.10
2022-11-07T22:26:38.960Z,2.13
2022-11-07T22:29:11.952Z,2.13
2022-11-07T22:31:44.910Z,2.47
2022-11-07T22:34:11.542Z,1.95
2022-11-07T22:36:44.936Z,2.22
2022-11-07T22:39:17.943Z,1.80
2022-11-07T22:41:50.984Z,2.28
2022-11-07T22:44:23.935Z,1.92
2022-11-07T22:46:56.971Z,2.17
2022-11-07T22:49:23.626Z,2.10
2022-11-07T22:51:56.912Z,2.53
2022-11-07T22:54:30.011Z,2.40
2022-11-07T22:57:02.955Z,2.50
2022-11-07T22:59:29.535Z,2.78
2022-11-07T23:02:03.037Z,2.15
2022-11-07T23:04:32.929Z,2.33
2022-11-07T23:07:05.933Z,2.22
2022-11-07T23:09:56.606Z,2.33
2022-11-07T23:12:33.925Z,1.85
2022-11-07T23:15:00.640Z,2.42
2022-11-07T23:17:33.931Z,2.10
2022-11-07T23:20:00.546Z,1.70
2022-11-07T23:22:32.054Z,2.28
2022-11-07T23:25:05.959Z,2.20
2022-11-07T23:27:32.596Z,2.13
2022-11-07T23:29:59.208Z,2.67
2022-11-07T23:32:33.922Z,2.33
2022-11-07T23:35:00.516Z,2.42
2022-11-07T23:37:27.088Z,2.00
2022-11-07T23:39:59.977Z,2.40
2022-11-07T23:42:33.926Z,1.65
2022-11-07T23:45:25.929Z,2.08
2022-11-07T23:48:18.279Z,2.10
2022-11-07T23:51:03.496Z,1.92
2022-11-07T23:53:58.928Z,1.92
2022-11-07T23:56:27.248Z,2.38
2022-11-07T23:59:19.972Z,2.25
